sensor_id;sensor_type;location;lat;lon;timestamp;pressure;altitude;pressure_sealevel;temperature;humidity
80164;BME280;70071;55.130;61.268;2023-06-10T00:02:21;98689.59;;;21.05;40.92
80164;BME280;70071;55.130;61.268;2023-06-10T00:04:47;98694.41;;;21.03;41.21
80164;BME280;70071;55.130;61.268;2023-06-10T00:07:13;98681.97;;;20.97;41.42
80164;BME280;70071;55.130;61.268;2023-06-10T00:09:39;98672.81;;;20.92;40.56
80164;BME280;70071;55.130;61.268;2023-06-10T00:12:07;98668.47;;;20.91;41.02
80164;BME280;70071;55.130;61.268;2023-06-10T00:14:36;98658.75;;;20.90;40.32
80164;BME280;70071;55.130;61.268;2023-06-10T00:17:02;98674.41;;;20.93;39.99
80164;BME280;70071;55.130;61.268;2023-06-10T00:19:28;98674.97;;;20.96;39.97
80164;BME280;70071;55.130;61.268;2023-06-10T00:21:57;98671.97;;;20.92;39.84
80164;BME280;70071;55.130;61.268;2023-06-10T00:24:23;98681.56;;;21.15;39.49
80164;BME280;70071;55.130;61.268;2023-06-10T00:26:49;98660.63;;;20.85;39.51
80164;BME280;70071;55.130;61.268;2023-06-10T00:29:15;98661.16;;;20.87;39.35
80164;BME280;70071;55.130;61.268;2023-06-10T00:31:41;98667.88;;;20.84;38.81
80164;BME280;70071;55.130;61.268;2023-06-10T00:34:07;98674.91;;;20.85;38.97
80164;BME280;70071;55.130;61.268;2023-06-10T00:36:34;98660.03;;;20.77;39.02
80164;BME280;70071;55.130;61.268;2023-06-10T00:39:01;98669.75;;;20.79;38.49
80164;BME280;70071;55.130;61.268;2023-06-10T00:41:28;98661.91;;;20.77;38.71
80164;BME280;70071;55.130;61.268;2023-06-10T00:43:54;98662.41;;;20.74;38.72
80164;BME280;70071;55.130;61.268;2023-06-10T00:46:21;98669.50;;;20.85;38.44
80164;BME280;70071;55.130;61.268;2023-06-10T00:48:47;98640.53;;;20.65;38.68
80164;BME280;70071;55.130;61.268;2023-06-10T00:51:15;98656.25;;;20.79;38.80
80164;BME280;70071;55.130;61.268;2023-06-10T00:53:41;98663.06;;;20.86;38.57
80164;BME280;70071;55.130;61.268;2023-06-10T00:56:08;98678.38;;;20.81;38.87
80164;BME280;70071;55.130;61.268;2023-06-10T00:58:34;98656.34;;;20.62;39.04
80164;BME280;70071;55.130;61.268;2023-06-10T01:01:01;98661.19;;;20.54;38.78
80164;BME280;70071;55.130;61.268;2023-06-10T01:03:27;98671.19;;;20.59;38.74
80164;BME280;70071;55.130;61.268;2023-06-10T01:06:03;98664.97;;;20.58;38.65
80164;BME280;70071;55.130;61.268;2023-06-10T01:08:55;98693.41;;;20.71;38.45
80164;BME280;70071;55.130;61.268;2023-06-10T01:11:27;98683.94;;;20.69;38.31
80164;BME280;70071;55.130;61.268;2023-06-10T01:13:55;98671.69;;;20.56;38.16
80164;BME280;70071;55.130;61.268;2023-06-10T01:16:22;98664.38;;;20.51;37.47
80164;BME280;70071;55.130;61.268;2023-06-10T01:18:48;98682.81;;;20.65;37.43
80164;BME280;70071;55.130;61.268;2023-06-10T01:21:21;98672.00;;;20.59;37.19
80164;BME280;70071;55.130;61.268;2023-06-10T01:23:52;98678.00;;;20.67;36.96
80164;BME280;70071;55.130;61.268;2023-06-10T01:26:19;98681.78;;;20.66;36.85
80164;BME280;70071;55.130;61.268;2023-06-10T01:28:49;98692.56;;;20.66;36.97
80164;BME280;70071;55.130;61.268;2023-06-10T01:31:42;98660.34;;;20.54;36.79
80164;BME280;70071;55.130;61.268;2023-06-10T01:34:14;98678.44;;;20.58;36.73
80164;BME280;70071;55.130;61.268;2023-06-10T01:36:45;98665.16;;;20.47;36.90
80164;BME280;70071;55.130;61.268;2023-06-10T01:39:15;98675.19;;;20.56;36.81
80164;BME280;70071;55.130;61.268;2023-06-10T01:41:42;98681.97;;;20.59;36.68
80164;BME280;70071;55.130;61.268;2023-06-10T01:44:09;98666.06;;;20.57;36.79
80164;BME280;70071;55.130;61.268;2023-06-10T01:46:35;98686.00;;;20.62;36.82
80164;BME280;70071;55.130;61.268;2023-06-10T01:49:01;98679.97;;;20.49;36.91
80164;BME280;70071;55.130;61.268;2023-06-10T01:51:27;98663.72;;;20.39;36.75
80164;BME280;70071;55.130;61.268;2023-06-10T01:53:52;98680.88;;;20.60;36.62
80164;BME280;70071;55.130;61.268;2023-06-10T01:56:18;98684.94;;;20.63;36.47
80164;BME280;70071;55.130;61.268;2023-06-10T01:58:46;98662.47;;;20.47;36.16
80164;BME280;70071;55.130;61.268;2023-06-10T02:01:12;98669.28;;;20.59;36.11
80164;BME280;70071;55.130;61.268;2023-06-10T02:03:38;98655.19;;;20.47;36.32
80164;BME280;70071;55.130;61.268;2023-06-10T02:06:04;98667.63;;;20.53;36.48
80164;BME280;70071;55.130;61.268;2023-06-10T02:08:30;98665.53;;;20.61;36.35
80164;BME280;70071;55.130;61.268;2023-06-10T02:10:55;98686.13;;;20.72;36.49
80164;BME280;70071;55.130;61.268;2023-06-10T02:13:21;98665.28;;;20.62;36.40
80164;BME280;70071;55.130;61.268;2023-06-10T02:15:47;98676.31;;;20.61;36.06
80164;BME280;70071;55.130;61.268;2023-06-10T02:18:13;98653.56;;;20.46;36.40
80164;BME280;70071;55.130;61.268;2023-06-10T02:20:42;98662.78;;;20.55;36.00
80164;BME280;70071;55.130;61.268;2023-06-10T02:23:08;98667.91;;;20.57;36.19
80164;BME280;70071;55.130;61.268;2023-06-10T02:25:34;98684.94;;;20.57;35.80
80164;BME280;70071;55.130;61.268;2023-06-10T02:28:00;98676.06;;;20.62;35.90
80164;BME280;70071;55.130;61.268;2023-06-10T02:30:26;98687.00;;;20.77;35.51
80164;BME280;70071;55.130;61.268;2023-06-10T02:32:52;98692.03;;;20.69;35.58
80164;BME280;70071;55.130;61.268;2023-06-10T02:35:18;98668.22;;;20.61;35.65
80164;BME280;70071;55.130;61.268;2023-06-10T02:37:44;98683.84;;;20.91;35.27
80164;BME280;70071;55.130;61.268;2023-06-10T02:40:10;98688.38;;;20.80;35.48
80164;BME280;70071;55.130;61.268;2023-06-10T02:42:37;98695.69;;;20.90;35.58
80164;BME280;70071;55.130;61.268;2023-06-10T02:45:03;98679.03;;;20.61;35.96
80164;BME280;70071;55.130;61.268;2023-06-10T02:47:30;98680.44;;;20.68;36.41
80164;BME280;70071;55.130;61.268;2023-06-10T02:49:56;98680.47;;;20.73;36.26
80164;BME280;70071;55.130;61.268;2023-06-10T02:52:22;98668.13;;;20.77;35.76
80164;BME280;70071;55.130;61.268;2023-06-10T02:54:48;98687.63;;;20.95;35.60
80164;BME280;70071;55.130;61.268;2023-06-10T02:57:14;98676.81;;;20.85;36.04
80164;BME280;70071;55.130;61.268;2023-06-10T02:59:40;98670.31;;;20.86;35.75
80164;BME280;70071;55.130;61.268;2023-06-10T03:02:06;98699.09;;;21.12;36.09
80164;BME280;70071;55.130;61.268;2023-06-10T03:04:33;98665.69;;;20.76;36.50
80164;BME280;70071;55.130;61.268;2023-06-10T03:06:59;98674.03;;;20.80;36.18
80164;BME280;70071;55.130;61.268;2023-06-10T03:09:29;98672.53;;;20.62;36.21
80164;BME280;70071;55.130;61.268;2023-06-10T03:11:55;98665.06;;;20.69;36.27
80164;BME280;70071;55.130;61.268;2023-06-10T03:14:21;98688.94;;;20.87;36.32
80164;BME280;70071;55.130;61.268;2023-06-10T03:16:47;98675.50;;;20.92;36.48
80164;BME280;70071;55.130;61.268;2023-06-10T03:19:12;98678.19;;;20.92;36.56
80164;BME280;70071;55.130;61.268;2023-06-10T03:21:38;98676.97;;;21.10;36.29
80164;BME280;70071;55.130;61.268;2023-06-10T03:24:07;98663.94;;;21.02;36.34
80164;BME280;70071;55.130;61.268;2023-06-10T03:26:32;98686.97;;;21.15;36.53
80164;BME280;70071;55.130;61.268;2023-06-10T03:28:58;98682.13;;;21.17;36.10
80164;BME280;70071;55.130;61.268;2023-06-10T03:31:24;98685.69;;;21.28;35.92
80164;BME280;70071;55.130;61.268;2023-06-10T03:33:50;98671.31;;;21.12;36.36
80164;BME280;70071;55.130;61.268;2023-06-10T03:36:16;98670.81;;;21.25;35.93
80164;BME280;70071;55.130;61.268;2023-06-10T03:38:42;98687.06;;;21.30;35.68
80164;BME280;70071;55.130;61.268;2023-06-10T03:41:34;98680.56;;;21.32;35.50
80164;BME280;70071;55.130;61.268;2023-06-10T03:44:32;98654.06;;;21.18;35.35
80164;BME280;70071;55.130;61.268;2023-06-10T03:46:59;98686.84;;;21.42;35.13
80164;BME280;70071;55.130;61.268;2023-06-10T03:49:25;98686.84;;;21.47;35.47
80164;BME280;70071;55.130;61.268;2023-06-10T03:51:53;98685.75;;;21.43;35.15
80164;BME280;70071;55.130;61.268;2023-06-10T03:54:19;98665.47;;;21.30;35.29
80164;BME280;70071;55.130;61.268;2023-06-10T03:56:45;98685.75;;;21.43;35.02
80164;BME280;70071;55.130;61.268;2023-06-10T03:59:13;98668.22;;;21.46;34.88
80164;BME280;70071;55.130;61.268;2023-06-10T04:01:39;98664.97;;;21.44;34.91
80164;BME280;70071;55.130;61.268;2023-06-10T04:04:06;98681.50;;;21.53;34.58
80164;BME280;70071;55.130;61.268;2023-06-10T04:06:32;98656.03;;;21.38;34.85
80164;BME280;70071;55.130;61.268;2023-06-10T04:09:01;98650.66;;;21.43;34.72
80164;BME280;70071;55.130;61.268;2023-06-10T04:11:28;98665.78;;;21.44;34.43
80164;BME280;70071;55.130;61.268;2023-06-10T04:13:54;98667.16;;;21.47;34.58
80164;BME280;70071;55.130;61.268;2023-06-10T04:16:20;98664.00;;;21.65;34.08
80164;BME280;70071;55.130;61.268;2023-06-10T04:18:47;98670.19;;;21.61;34.00
80164;BME280;70071;55.130;61.268;2023-06-10T04:21:12;98675.34;;;21.62;34.16
80164;BME280;70071;55.130;61.268;2023-06-10T04:23:38;98660.72;;;21.53;34.64
80164;BME280;70071;55.130;61.268;2023-06-10T04:26:04;98669.38;;;21.60;34.15
80164;BME280;70071;55.130;61.268;2023-06-10T04:28:31;98678.59;;;21.70;34.14
80164;BME280;70071;55.130;61.268;2023-06-10T04:30:57;98647.81;;;21.71;34.18
80164;BME280;70071;55.130;61.268;2023-06-10T04:33:23;98670.56;;;21.85;34.90
80164;BME280;70071;55.130;61.268;2023-06-10T04:35:49;98674.13;;;22.11;34.14
80164;BME280;70071;55.130;61.268;2023-06-10T04:38:15;98664.34;;;22.00;33.70
80164;BME280;70071;55.130;61.268;2023-06-10T04:40:41;98655.72;;;21.98;33.62
80164;BME280;70071;55.130;61.268;2023-06-10T04:43:07;98668.94;;;21.94;33.83
80164;BME280;70071;55.130;61.268;2023-06-10T04:45:33;98650.28;;;21.88;34.02
80164;BME280;70071;55.130;61.268;2023-06-10T04:47:59;98646.25;;;21.95;33.31
80164;BME280;70071;55.130;61.268;2023-06-10T04:50:25;98677.88;;;22.10;33.06
80164;BME280;70071;55.130;61.268;2023-06-10T04:52:51;98666.53;;;22.03;33.03
80164;BME280;70071;55.130;61.268;2023-06-10T04:55:17;98653.28;;;21.96;33.77
80164;BME280;70071;55.130;61.268;2023-06-10T04:57:43;98664.09;;;21.96;33.22
80164;BME280;70071;55.130;61.268;2023-06-10T05:00:09;98684.09;;;22.06;33.23
80164;BME280;70071;55.130;61.268;2023-06-10T05:02:35;98666.00;;;22.06;33.21
80164;BME280;70071;55.130;61.268;2023-06-10T05:05:01;98661.66;;;22.00;33.07
80164;BME280;70071;55.130;61.268;2023-06-10T05:07:29;98653.31;;;22.27;32.95
80164;BME280;70071;55.130;61.268;2023-06-10T05:09:55;98689.00;;;22.29;32.50
80164;BME280;70071;55.130;61.268;2023-06-10T05:12:21;98651.97;;;22.25;32.82
80164;BME280;70071;55.130;61.268;2023-06-10T05:14:48;98663.09;;;22.39;32.80
80164;BME280;70071;55.130;61.268;2023-06-10T05:17:14;98653.06;;;22.39;32.78
80164;BME280;70071;55.130;61.268;2023-06-10T05:19:40;98666.06;;;22.32;33.07
80164;BME280;70071;55.130;61.268;2023-06-10T05:22:07;98665.25;;;22.57;32.74
80164;BME280;70071;55.130;61.268;2023-06-10T05:24:32;98665.78;;;22.59;32.56
80164;BME280;70071;55.130;61.268;2023-06-10T05:26:58;98662.53;;;22.62;32.74
80164;BME280;70071;55.130;61.268;2023-06-10T05:29:24;98649.53;;;22.23;33.05
80164;BME280;70071;55.130;61.268;2023-06-10T05:31:51;98640.38;;;22.40;32.83
80164;BME280;70071;55.130;61.268;2023-06-10T05:34:17;98667.41;;;22.50;32.70
80164;BME280;70071;55.130;61.268;2023-06-10T05:36:43;98654.41;;;22.73;32.84
80164;BME280;70071;55.130;61.268;2023-06-10T05:39:09;98648.19;;;22.62;32.71
80164;BME280;70071;55.130;61.268;2023-06-10T05:41:36;98655.22;;;22.68;32.94
80164;BME280;70071;55.130;61.268;2023-06-10T05:44:01;98675.19;;;22.93;32.49
80164;BME280;70071;55.130;61.268;2023-06-10T05:46:27;98652.50;;;22.83;32.20
80164;BME280;70071;55.130;61.268;2023-06-10T05:48:54;98644.16;;;22.75;32.17
80164;BME280;70071;55.130;61.268;2023-06-10T05:51:20;98635.19;;;22.74;32.13
80164;BME280;70071;55.130;61.268;2023-06-10T05:53:46;98642.50;;;22.74;32.22
80164;BME280;70071;55.130;61.268;2023-06-10T05:56:13;98651.13;;;23.06;32.22
80164;BME280;70071;55.130;61.268;2023-06-10T05:58:41;98637.59;;;22.91;31.23
80164;BME280;70071;55.130;61.268;2023-06-10T06:01:07;98644.66;;;22.97;31.43
80164;BME280;70071;55.130;61.268;2023-06-10T06:03:33;98638.13;;;22.98;31.08
80164;BME280;70071;55.130;61.268;2023-06-10T06:05:59;98638.91;;;23.19;30.46
80164;BME280;70071;55.130;61.268;2023-06-10T06:08:25;98635.41;;;23.14;30.52
80164;BME280;70071;55.130;61.268;2023-06-10T06:10:51;98648.66;;;23.15;30.42
80164;BME280;70071;55.130;61.268;2023-06-10T06:13:17;98639.19;;;23.18;30.35
80164;BME280;70071;55.130;61.268;2023-06-10T06:15:43;98626.47;;;23.18;30.39
80164;BME280;70071;55.130;61.268;2023-06-10T06:18:09;98643.41;;;23.50;30.12
80164;BME280;70071;55.130;61.268;2023-06-10T06:20:34;98633.16;;;23.41;30.50
80164;BME280;70071;55.130;61.268;2023-06-10T06:23:00;98623.97;;;23.37;30.66
80164;BME280;70071;55.130;61.268;2023-06-10T06:25:26;98640.66;;;23.60;29.52
80164;BME280;70071;55.130;61.268;2023-06-10T06:27:52;98617.97;;;23.46;30.03
80164;BME280;70071;55.130;61.268;2023-06-10T06:30:18;98636.34;;;23.54;29.50
80164;BME280;70071;55.130;61.268;2023-06-10T06:32:45;98641.78;;;23.49;29.12
80164;BME280;70071;55.130;61.268;2023-06-10T06:35:11;98633.88;;;23.57;29.12
80164;BME280;70071;55.130;61.268;2023-06-10T06:37:37;98616.00;;;23.62;29.36
80164;BME280;70071;55.130;61.268;2023-06-10T06:40:03;98603.81;;;23.64;29.20
80164;BME280;70071;55.130;61.268;2023-06-10T06:42:30;98619.81;;;23.55;28.39
80164;BME280;70071;55.130;61.268;2023-06-10T06:44:56;98610.53;;;23.67;28.74
80164;BME280;70071;55.130;61.268;2023-06-10T06:47:22;98608.16;;;23.60;28.19
80164;BME280;70071;55.130;61.268;2023-06-10T06:49:48;98621.25;;;23.92;28.09
80164;BME280;70071;55.130;61.268;2023-06-10T06:52:17;98614.56;;;23.74;27.13
80164;BME280;70071;55.130;61.268;2023-06-10T06:54:43;98597.22;;;23.75;27.70
80164;BME280;70071;55.130;61.268;2023-06-10T06:57:09;98622.88;;;23.93;27.77
80164;BME280;70071;55.130;61.268;2023-06-10T06:59:35;98589.06;;;23.86;27.66
80164;BME280;70071;55.130;61.268;2023-06-10T07:02:00;98606.28;;;24.00;27.32
80164;BME280;70071;55.130;61.268;2023-06-10T07:04:26;98580.84;;;23.96;27.47
80164;BME280;70071;55.130;61.268;2023-06-10T07:06:52;98595.50;;;23.95;27.57
80164;BME280;70071;55.130;61.268;2023-06-10T07:09:18;98609.94;;;24.20;27.92
80164;BME280;70071;55.130;61.268;2023-06-10T07:11:44;98594.88;;;24.03;28.14
80164;BME280;70071;55.130;61.268;2023-06-10T07:14:09;98590.53;;;24.07;27.88
80164;BME280;70071;55.130;61.268;2023-06-10T07:16:35;98601.00;;;24.19;28.41
80164;BME280;70071;55.130;61.268;2023-06-10T07:19:01;98604.38;;;24.35;27.76
80164;BME280;70071;55.130;61.268;2023-06-10T07:21:27;98605.69;;;24.08;24.72
80164;BME280;70071;55.130;61.268;2023-06-10T07:23:54;98587.09;;;24.26;25.21
80164;BME280;70071;55.130;61.268;2023-06-10T07:26:22;98586.09;;;24.22;24.90
80164;BME280;70071;55.130;61.268;2023-06-10T07:28:48;98597.22;;;24.20;25.38
80164;BME280;70071;55.130;61.268;2023-06-10T07:31:14;98599.63;;;24.22;25.05
80164;BME280;70071;55.130;61.268;2023-06-10T07:33:40;98597.69;;;24.57;25.79
80164;BME280;70071;55.130;61.268;2023-06-10T07:36:06;98600.72;;;24.50;25.11
80164;BME280;70071;55.130;61.268;2023-06-10T07:38:32;98596.41;;;24.49;24.42
80164;BME280;70071;55.130;61.268;2023-06-10T07:40:57;98602.06;;;24.53;24.89
80164;BME280;70071;55.130;61.268;2023-06-10T07:43:24;98596.78;;;24.37;24.47
80164;BME280;70071;55.130;61.268;2023-06-10T07:45:50;98597.16;;;24.55;25.04
80164;BME280;70071;55.130;61.268;2023-06-10T07:48:16;98600.09;;;24.63;25.03
80164;BME280;70071;55.130;61.268;2023-06-10T07:50:42;98606.44;;;24.78;25.00
80164;BME280;70071;55.130;61.268;2023-06-10T07:53:08;98584.38;;;24.60;25.57
80164;BME280;70071;55.130;61.268;2023-06-10T07:55:33;98591.47;;;24.86;25.51
80164;BME280;70071;55.130;61.268;2023-06-10T07:57:59;98580.81;;;24.65;25.21
80164;BME280;70071;55.130;61.268;2023-06-10T08:00:25;98588.31;;;24.73;24.20
80164;BME280;70071;55.130;61.268;2023-06-10T08:02:52;98583.25;;;24.91;24.00
80164;BME280;70071;55.130;61.268;2023-06-10T08:05:17;98582.38;;;24.95;23.55
80164;BME280;70071;55.130;61.268;2023-06-10T08:07:44;98590.63;;;24.85;23.34
80164;BME280;70071;55.130;61.268;2023-06-10T08:10:10;98597.69;;;24.86;23.24
80164;BME280;70071;55.130;61.268;2023-06-10T08:12:36;98581.59;;;24.95;23.07
80164;BME280;70071;55.130;61.268;2023-06-10T08:15:02;98578.75;;;24.81;24.02
80164;BME280;70071;55.130;61.268;2023-06-10T08:17:32;98588.47;;;24.87;24.34
80164;BME280;70071;55.130;61.268;2023-06-10T08:19:58;98576.19;;;24.90;24.38
80164;BME280;70071;55.130;61.268;2023-06-10T08:22:24;98585.66;;;25.16;24.34
80164;BME280;70071;55.130;61.268;2023-06-10T08:24:50;98570.94;;;24.98;24.10
80164;BME280;70071;55.130;61.268;2023-06-10T08:27:16;98582.66;;;25.18;24.33
80164;BME280;70071;55.130;61.268;2023-06-10T08:29:41;98584.50;;;25.23;23.86
80164;BME280;70071;55.130;61.268;2023-06-10T08:32:07;98593.88;;;25.35;24.17
80164;BME280;70071;55.130;61.268;2023-06-10T08:34:34;98571.44;;;25.25;24.26
80164;BME280;70071;55.130;61.268;2023-06-10T08:37:03;98567.63;;;25.26;24.19
80164;BME280;70071;55.130;61.268;2023-06-10T08:39:29;98559.09;;;25.38;24.32
80164;BME280;70071;55.130;61.268;2023-06-10T08:42:52;98561.97;;;25.46;24.13
80164;BME280;70071;55.130;61.268;2023-06-10T08:44:54;98583.91;;;25.50;24.18
80164;BME280;70071;55.130;61.268;2023-06-10T08:47:23;98537.22;;;25.48;23.98
80164;BME280;70071;55.130;61.268;2023-06-10T08:49:50;98555.78;;;25.60;24.10
80164;BME280;70071;55.130;61.268;2023-06-10T08:52:19;98569.53;;;25.49;23.30
80164;BME280;70071;55.130;61.268;2023-06-10T08:55:15;98561.72;;;25.81;23.68
80164;BME280;70071;55.130;61.268;2023-06-10T08:57:45;98554.69;;;25.80;23.58
80164;BME280;70071;55.130;61.268;2023-06-10T09:00:15;98562.16;;;25.88;23.48
80164;BME280;70071;55.130;61.268;2023-06-10T09:02:42;98556.94;;;25.92;23.71
80164;BME280;70071;55.130;61.268;2023-06-10T09:05:09;98565.88;;;26.11;22.85
80164;BME280;70071;55.130;61.268;2023-06-10T09:07:36;98541.22;;;26.08;22.72
80164;BME280;70071;55.130;61.268;2023-06-10T09:10:03;98557.06;;;26.19;22.67
80164;BME280;70071;55.130;61.268;2023-06-10T09:12:33;98536.09;;;26.20;22.74
80164;BME280;70071;55.130;61.268;2023-06-10T09:15:01;98526.94;;;26.30;22.86
80164;BME280;70071;55.130;61.268;2023-06-10T09:17:28;98534.84;;;26.45;22.70
80164;BME280;70071;55.130;61.268;2023-06-10T09:19:54;98538.50;;;26.54;21.66
80164;BME280;70071;55.130;61.268;2023-06-10T09:22:22;98542.13;;;26.64;21.79
80164;BME280;70071;55.130;61.268;2023-06-10T09:24:48;98544.69;;;26.74;21.15
80164;BME280;70071;55.130;61.268;2023-06-10T09:27:14;98543.66;;;26.84;21.12
80164;BME280;70071;55.130;61.268;2023-06-10T09:29:51;98513.91;;;26.87;21.79
80164;BME280;70071;55.130;61.268;2023-06-10T09:32:17;98520.56;;;27.09;22.30
80164;BME280;70071;55.130;61.268;2023-06-10T09:34:44;98546.47;;;27.34;21.93
80164;BME280;70071;55.130;61.268;2023-06-10T09:37:11;98536.38;;;27.35;21.14
80164;BME280;70071;55.130;61.268;2023-06-10T09:39:42;98525.06;;;27.41;21.47
80164;BME280;70071;55.130;61.268;2023-06-10T09:42:18;98549.78;;;27.68;21.43
80164;BME280;70071;55.130;61.268;2023-06-10T09:44:51;98530.66;;;27.81;20.70
80164;BME280;70071;55.130;61.268;2023-06-10T09:47:21;98528.50;;;27.92;21.65
80164;BME280;70071;55.130;61.268;2023-06-10T09:49:51;98542.44;;;28.13;20.86
80164;BME280;70071;55.130;61.268;2023-06-10T09:52:25;98536.25;;;28.22;20.35
80164;BME280;70071;55.130;61.268;2023-06-10T09:54:52;98534.69;;;28.29;20.29
80164;BME280;70071;55.130;61.268;2023-06-10T09:57:21;98531.53;;;28.45;20.36
80164;BME280;70071;55.130;61.268;2023-06-10T09:59:47;98529.97;;;28.52;20.26
80164;BME280;70071;55.130;61.268;2023-06-10T10:02:14;98531.03;;;28.65;19.95
80164;BME280;70071;55.130;61.268;2023-06-10T10:04:40;98531.34;;;28.73;20.01
80164;BME280;70071;55.130;61.268;2023-06-10T10:07:06;98519.81;;;28.76;20.05
80164;BME280;70071;55.130;61.268;2023-06-10T10:09:36;98520.47;;;28.81;19.82
80164;BME280;70071;55.130;61.268;2023-06-10T10:12:02;98522.44;;;28.89;19.86
80164;BME280;70071;55.130;61.268;2023-06-10T10:14:32;98521.31;;;28.99;19.96
80164;BME280;70071;55.130;61.268;2023-06-10T10:17:00;98542.13;;;29.27;19.79
80164;BME280;70071;55.130;61.268;2023-06-10T10:19:31;98532.34;;;29.43;19.85
80164;BME280;70071;55.130;61.268;2023-06-10T10:22:07;98521.59;;;29.64;19.63
80164;BME280;70071;55.130;61.268;2023-06-10T10:24:38;98533.34;;;29.82;20.48
80164;BME280;70071;55.130;61.268;2023-06-10T10:27:12;98517.22;;;29.89;19.37
80164;BME280;70071;55.130;61.268;2023-06-10T10:29:40;98518.84;;;29.90;19.22
80164;BME280;70071;55.130;61.268;2023-06-10T10:32:08;98501.16;;;29.88;18.95
80164;BME280;70071;55.130;61.268;2023-06-10T10:34:53;98526.88;;;30.04;18.61
80164;BME280;70071;55.130;61.268;2023-06-10T10:37:26;98531.53;;;30.12;19.24
80164;BME280;70071;55.130;61.268;2023-06-10T10:39:52;98507.22;;;30.11;18.72
80164;BME280;70071;55.130;61.268;2023-06-10T10:42:18;98511.06;;;30.19;19.01
80164;BME280;70071;55.130;61.268;2023-06-10T10:44:45;98510.91;;;30.15;19.42
80164;BME280;70071;55.130;61.268;2023-06-10T10:47:13;98505.44;;;30.15;19.09
80164;BME280;70071;55.130;61.268;2023-06-10T10:49:40;98505.44;;;30.15;18.26
80164;BME280;70071;55.130;61.268;2023-06-10T10:52:11;98494.16;;;30.17;18.81
80164;BME280;70071;55.130;61.268;2023-06-10T10:54:43;98509.06;;;30.37;19.29
80164;BME280;70071;55.130;61.268;2023-06-10T10:57:16;98505.06;;;30.34;19.01
80164;BME280;70071;55.130;61.268;2023-06-10T11:04:47;98512.06;;;30.61;18.61
80164;BME280;70071;55.130;61.268;2023-06-10T11:07:14;98485.00;;;30.60;18.53
80164;BME280;70071;55.130;61.268;2023-06-10T11:10:09;98501.34;;;30.77;18.15
80164;BME280;70071;55.130;61.268;2023-06-10T11:12:51;98506.91;;;30.90;18.53
80164;BME280;70071;55.130;61.268;2023-06-10T11:15:27;98499.16;;;31.00;17.98
80164;BME280;70071;55.130;61.268;2023-06-10T11:23:09;98490.19;;;31.76;18.32
80164;BME280;70071;55.130;61.268;2023-06-10T11:25:39;98492.47;;;32.07;17.23
80164;BME280;70071;55.130;61.268;2023-06-10T11:28:19;98488.06;;;32.27;17.31
80164;BME280;70071;55.130;61.268;2023-06-10T11:30:46;98492.09;;;32.54;18.12
80164;BME280;70071;55.130;61.268;2023-06-10T11:33:16;98490.75;;;32.73;17.25
80164;BME280;70071;55.130;61.268;2023-06-10T11:35:43;98493.56;;;33.14;16.87
80164;BME280;70071;55.130;61.268;2023-06-10T11:38:09;98502.31;;;33.44;16.45
80164;BME280;70071;55.130;61.268;2023-06-10T11:40:36;98490.06;;;33.70;16.45
80164;BME280;70071;55.130;61.268;2023-06-10T11:43:04;98492.75;;;34.10;15.59
80164;BME280;70071;55.130;61.268;2023-06-10T11:45:30;98490.56;;;34.32;15.69
80164;BME280;70071;55.130;61.268;2023-06-10T11:47:59;98485.16;;;34.51;15.73
80164;BME280;70071;55.130;61.268;2023-06-10T11:50:30;98484.16;;;34.76;15.83
80164;BME280;70071;55.130;61.268;2023-06-10T11:52:56;98469.59;;;35.11;15.30
80164;BME280;70071;55.130;61.268;2023-06-10T11:55:46;98463.44;;;35.37;15.40
80164;BME280;70071;55.130;61.268;2023-06-10T11:58:21;98469.81;;;35.80;15.35
80164;BME280;70071;55.130;61.268;2023-06-10T12:00:49;98476.72;;;36.36;14.29
80164;BME280;70071;55.130;61.268;2023-06-10T12:03:16;98462.16;;;36.62;14.44
80164;BME280;70071;55.130;61.268;2023-06-10T12:06:02;98480.47;;;36.97;14.17
80164;BME280;70071;55.130;61.268;2023-06-10T12:08:28;98468.78;;;37.42;13.41
80164;BME280;70071;55.130;61.268;2023-06-10T12:10:55;98474.59;;;37.67;13.66
80164;BME280;70071;55.130;61.268;2023-06-10T12:13:23;98459.44;;;37.88;14.02
80164;BME280;70071;55.130;61.268;2023-06-10T12:15:51;98457.69;;;38.17;13.49
80164;BME280;70071;55.130;61.268;2023-06-10T12:18:22;98447.25;;;38.41;13.57
80164;BME280;70071;55.130;61.268;2023-06-10T12:20:48;98449.06;;;38.74;13.57
80164;BME280;70071;55.130;61.268;2023-06-10T12:23:17;98456.03;;;39.13;13.04
80164;BME280;70071;55.130;61.268;2023-06-10T12:25:54;98456.16;;;39.49;12.65
80164;BME280;70071;55.130;61.268;2023-06-10T12:28:24;98452.66;;;39.62;12.70
80164;BME280;70071;55.130;61.268;2023-06-10T12:30:51;98453.97;;;40.01;12.65
80164;BME280;70071;55.130;61.268;2023-06-10T12:33:21;98436.06;;;39.98;12.22
80164;BME280;70071;55.130;61.268;2023-06-10T12:35:51;98450.00;;;40.49;11.79
80164;BME280;70071;55.130;61.268;2023-06-10T12:38:22;98433.66;;;40.73;11.96
80164;BME280;70071;55.130;61.268;2023-06-10T12:40:50;98439.16;;;41.01;11.41
80164;BME280;70071;55.130;61.268;2023-06-10T12:43:23;98443.47;;;41.17;11.43
80164;BME280;70071;55.130;61.268;2023-06-10T12:45:49;98434.66;;;41.36;11.27
80164;BME280;70071;55.130;61.268;2023-06-10T12:48:23;98442.09;;;41.54;10.72
80164;BME280;70071;55.130;61.268;2023-06-10T12:50:56;98445.59;;;41.76;11.10
80164;BME280;70071;55.130;61.268;2023-06-10T12:53:24;98428.44;;;41.85;10.84
80164;BME280;70071;55.130;61.268;2023-06-10T12:55:50;98456.94;;;42.03;10.88
80164;BME280;70071;55.130;61.268;2023-06-10T12:58:17;98435.72;;;42.20;10.47
80164;BME280;70071;55.130;61.268;2023-06-10T13:00:43;98451.94;;;42.33;10.57
80164;BME280;70071;55.130;61.268;2023-06-10T13:03:13;98432.41;;;42.33;10.74
80164;BME280;70071;55.130;61.268;2023-06-10T13:05:38;98434.34;;;42.39;10.60